Aviation Digital Data Service (ADDS)

Output produced by METARs form (0015 UTC 19 April 2014)
found at http://www.aviationweather.gov/adds/metars/
 
TAF COR KBOS 182336Z 1900/2006 11006KT P6SM BKN010 BKN020 
     FM190300 12005KT P6SM SCT010 BKN025 
     FM190500 18005KT P6SM BKN060 
     FM190700 22005KT P6SM SCT090 
     FM191300 28009KT P6SM FEW250 
     FM191700 31014G23KT P6SM FEW250 
     FM200300 35009KT P6SM SKC